Time;durP1;ratioP1;P1;durP2;ratioP2;P2;SDS_P1;SDS_P2;PMS_P1;PMS_P2;Temp;Humidity;BMP_temperature;BMP_pressure;BME280_temperature;BME280_humidity;BME280_pressure;Samples;Min_cycle;Max_cycle;Signal;HPM_P1;HPM_P2
2021/10/31 00:00:51;0.00;0.00;0.62;0.00;0.00;0.62;2.00;1.40;;;25.60;28.80;;;;;;2249425;61;20368;-63
2021/10/31 00:03:36;0.00;0.00;0.62;0.00;0.00;0.62;1.90;1.40;;;25.60;28.80;;;;;;2249789;61;20361;-64
2021/10/31 00:06:21;0.00;0.00;0.62;0.00;0.00;0.62;1.87;1.37;;;25.60;28.80;;;;;;2248756;61;20412;-63
2021/10/31 00:09:07;0.00;0.00;0.62;0.00;0.00;0.62;2.57;1.60;;;25.60;28.80;;;;;;2249214;61;20432;-64
2021/10/31 00:11:52;0.00;0.00;0.62;0.00;0.00;0.62;2.47;2.27;;;25.60;28.80;;;;;;2249624;61;20364;-64
2021/10/31 00:14:36;0.00;0.00;0.62;0.00;0.00;0.62;2.00;1.60;;;25.60;28.80;;;;;;2249732;61;20687;-64
2021/10/31 00:17:22;0.00;0.00;0.62;0.00;0.00;0.62;2.40;1.50;;;25.60;28.80;;;;;;2249377;61;20432;-63
2021/10/31 00:20:08;0.00;0.00;0.62;0.00;0.00;0.62;2.47;1.13;;;25.60;28.80;;;;;;2249155;61;20359;-63
2021/10/31 00:22:53;0.00;0.00;0.62;0.00;0.00;0.62;2.07;1.30;;;25.60;28.80;;;;;;2249338;61;20368;-62
2021/10/31 00:25:38;0.00;0.00;0.62;0.00;0.00;0.62;2.50;1.40;;;25.60;28.80;;;;;;2249416;61;20596;-62
2021/10/31 00:28:24;0.00;0.00;0.62;0.00;0.00;0.62;1.97;1.37;;;25.60;28.80;;;;;;2249187;61;20405;-62
2021/10/31 00:31:10;0.00;0.00;0.62;0.00;0.00;0.62;1.70;1.30;;;25.60;28.80;;;;;;2249177;61;20365;-64
2021/10/31 00:33:56;0.00;0.00;0.62;0.00;0.00;0.62;1.57;1.47;;;25.70;28.90;;;;;;2249662;61;20412;-65
2021/10/31 00:36:41;0.00;0.00;0.62;0.00;0.00;0.62;2.13;1.33;;;25.60;28.90;;;;;;2249452;61;20396;-66
2021/10/31 00:39:25;0.00;0.00;0.62;0.00;0.00;0.62;1.80;1.40;;;25.60;28.90;;;;;;2249077;61;20380;-63
2021/10/31 00:42:10;0.00;0.00;0.62;0.00;0.00;0.62;5.50;1.40;;;25.60;28.90;;;;;;2249156;61;20363;-63
2021/10/31 00:44:54;0.00;0.00;0.62;0.00;0.00;0.62;2.27;1.40;;;25.70;29.00;;;;;;2249357;61;20634;-64
2021/10/31 00:47:39;0.00;0.00;0.62;0.00;0.00;0.62;2.70;1.30;;;25.70;29.00;;;;;;2249531;61;20456;-63
2021/10/31 00:50:25;0.00;0.00;0.62;0.00;0.00;0.62;1.60;1.20;;;25.60;28.90;;;;;;2249215;61;20575;-65
2021/10/31 00:53:11;0.00;0.00;0.62;0.00;0.00;0.62;2.07;1.50;;;25.60;28.90;;;;;;2249032;61;20485;-65
2021/10/31 00:55:56;0.00;0.00;0.62;0.00;0.00;0.62;2.63;1.40;;;25.70;29.00;;;;;;2249426;61;20361;-62
2021/10/31 00:58:41;0.00;0.00;0.62;0.00;0.00;0.62;2.33;1.93;;;25.70;29.00;;;;;;2249395;61;20396;-64
2021/10/31 01:01:28;0.00;0.00;0.62;0.00;0.00;0.62;1.60;1.20;;;25.60;28.90;;;;;;2249053;61;20404;-66
2021/10/31 01:04:19;0.00;0.00;0.62;0.00;0.00;0.62;2.00;1.43;;;25.60;28.90;;;;;;2249685;61;20360;-62
2021/10/31 01:07:37;0.00;0.00;0.62;0.00;0.00;0.62;1.97;1.50;;;25.70;28.90;;;;;;2250137;61;20420;-65
2021/10/31 01:10:37;0.00;0.00;0.62;0.00;0.00;0.62;1.73;1.33;;;25.60;28.90;;;;;;2250188;61;20396;-65
2021/10/31 01:13:38;0.00;0.00;0.62;0.00;0.00;0.62;1.80;1.20;;;25.70;29.00;;;;;;2250022;61;20588;-65
2021/10/31 01:16:38;0.00;0.00;0.62;0.00;0.00;0.62;1.83;1.63;;;25.70;29.00;;;;;;2249545;61;20795;-64
2021/10/31 01:19:45;0.00;0.00;0.62;0.00;0.00;0.62;1.73;1.30;;;25.60;28.90;;;;;;2249680;61;20408;-65
2021/10/31 01:22:48;0.00;0.00;0.62;0.00;0.00;0.62;1.67;1.20;;;25.70;29.00;;;;;;2249805;61;20364;-62
2021/10/31 01:25:46;0.00;0.00;0.62;0.00;0.00;0.62;2.33;1.67;;;25.70;29.00;;;;;;2250119;61;20489;-61
2021/10/31 01:28:51;0.00;0.00;0.62;0.00;0.00;0.62;1.80;1.43;;;25.60;28.90;;;;;;2250197;61;20482;-63
2021/10/31 01:31:44;0.00;0.00;0.62;0.00;0.00;0.62;2.07;1.40;;;25.60;28.90;;;;;;2249572;61;20356;-66
2021/10/31 01:34:44;0.00;0.00;0.62;0.00;0.00;0.62;2.00;1.30;;;25.60;28.90;;;;;;2249874;61;20373;-65
2021/10/31 01:37:49;0.00;0.00;0.62;0.00;0.00;0.62;2.00;1.30;;;25.60;28.90;;;;;;2249626;61;20595;-65
2021/10/31 01:40:42;0.00;0.00;0.62;0.00;0.00;0.62;2.57;1.30;;;25.60;28.90;;;;;;2250155;61;20650;-65
2021/10/31 01:43:34;0.00;0.00;0.62;0.00;0.00;0.62;1.87;1.40;;;25.60;28.90;;;;;;2253519;61;20427;-64
2021/10/31 01:46:33;0.00;0.00;0.62;0.00;0.00;0.62;1.80;1.40;;;25.60;28.90;;;;;;2256208;61;20395;-61
2021/10/31 01:49:25;0.00;0.00;0.62;0.00;0.00;0.62;1.60;1.20;;;25.60;28.90;;;;;;2354615;53;20387;-64
2021/10/31 01:52:17;0.00;0.00;0.62;0.00;0.00;0.62;2.10;1.40;;;25.60;28.90;;;;;;2262722;58;20364;-60
2021/10/31 01:55:07;0.00;0.00;0.62;0.00;0.00;0.62;2.20;1.40;;;25.60;28.90;;;;;;2458186;46;20595;-63
2021/10/31 01:57:57;0.00;0.00;0.62;0.00;0.00;0.62;1.77;1.30;;;25.60;29.00;;;;;;2253275;61;20400;-63
2021/10/31 02:00:45;0.00;0.00;0.62;0.00;0.00;0.62;1.80;1.20;;;25.60;28.90;;;;;;2253494;61;20364;-65
2021/10/31 02:03:31;0.00;0.00;0.62;0.00;0.00;0.62;1.90;1.30;;;25.60;29.00;;;;;;2253571;61;20372;-65
2021/10/31 02:06:17;0.00;0.00;0.62;0.00;0.00;0.62;1.30;0.93;;;25.60;29.00;;;;;;2253551;61;20384;-63
2021/10/31 02:09:02;0.00;0.00;0.62;0.00;0.00;0.62;4.80;1.53;;;25.60;29.00;;;;;;2253930;61;20466;-65
2021/10/31 02:11:51;0.00;0.00;0.62;0.00;0.00;0.62;1.50;1.17;;;25.60;29.00;;;;;;2253762;61;20367;-65
2021/10/31 02:14:36;0.00;0.00;0.62;0.00;0.00;0.62;1.70;1.13;;;25.60;29.00;;;;;;2253187;61;20817;-65
2021/10/31 02:17:21;0.00;0.00;0.62;0.00;0.00;0.62;2.40;1.17;;;25.60;29.00;;;;;;2253901;61;20387;-64
2021/10/31 02:20:08;0.00;0.00;0.62;0.00;0.00;0.62;1.50;1.23;;;25.60;29.00;;;;;;2253844;61;20398;-63
2021/10/31 02:22:55;0.00;0.00;0.62;0.00;0.00;0.62;1.60;1.10;;;25.60;29.00;;;;;;2253450;61;20720;-63
2021/10/31 02:25:39;0.00;0.00;0.62;0.00;0.00;0.62;2.07;1.30;;;25.60;29.00;;;;;;2253519;61;20360;-63
2021/10/31 02:28:26;0.00;0.00;0.62;0.00;0.00;0.62;1.43;1.13;;;25.60;29.00;;;;;;2253983;61;20410;-65
2021/10/31 02:31:10;0.00;0.00;0.62;0.00;0.00;0.62;1.43;1.07;;;25.60;29.00;;;;;;2253817;61;20360;-64
2021/10/31 02:33:55;0.00;0.00;0.62;0.00;0.00;0.62;2.00;1.20;;;25.60;29.00;;;;;;2253155;61;20384;-65
2021/10/31 02:36:40;0.00;0.00;0.62;0.00;0.00;0.62;1.60;1.23;;;25.60;29.00;;;;;;2253251;61;20762;-65
2021/10/31 02:39:26;0.00;0.00;0.62;0.00;0.00;0.62;1.47;1.20;;;25.70;29.10;;;;;;2253828;61;20364;-65
2021/10/31 02:42:11;0.00;0.00;0.62;0.00;0.00;0.62;1.80;1.30;;;25.60;29.00;;;;;;2253602;61;20431;-62
2021/10/31 02:44:56;0.00;0.00;0.62;0.00;0.00;0.62;1.40;0.93;;;25.60;29.10;;;;;;2253472;61;20678;-63
2021/10/31 02:47:48;0.00;0.00;0.62;0.00;0.00;0.62;1.87;1.00;;;25.60;29.10;;;;;;2253404;61;20387;-65
2021/10/31 02:50:38;0.00;0.00;0.62;0.00;0.00;0.62;1.77;1.27;;;25.60;29.10;;;;;;2253995;61;20432;-63
2021/10/31 02:53:28;0.00;0.00;0.62;0.00;0.00;0.62;1.90;1.60;;;25.60;29.10;;;;;;2253858;61;20431;-62
2021/10/31 02:56:25;0.00;0.00;0.62;0.00;0.00;0.62;2.00;1.40;;;25.60;29.10;;;;;;2253257;61;20404;-67
2021/10/31 02:59:19;0.00;0.00;0.62;0.00;0.00;0.62;1.50;1.20;;;25.60;29.10;;;;;;2253369;61;20368;-62
2021/10/31 03:02:05;0.00;0.00;0.62;0.00;0.00;0.62;1.50;1.13;;;25.60;29.20;;;;;;2253672;61;20391;-65
2021/10/31 03:04:50;0.00;0.00;0.62;0.00;0.00;0.62;2.17;1.30;;;25.60;29.10;;;;;;2253911;61;20364;-65
2021/10/31 03:07:37;0.00;0.00;0.62;0.00;0.00;0.62;1.93;1.10;;;25.60;29.10;;;;;;2253509;61;20423;-64
2021/10/31 03:10:22;0.00;0.00;0.62;0.00;0.00;0.62;1.60;1.10;;;25.60;29.10;;;;;;2253564;61;20399;-65
2021/10/31 03:13:08;0.00;0.00;0.62;0.00;0.00;0.62;2.10;1.30;;;25.60;29.10;;;;;;2253643;61;20364;-66
2021/10/31 03:15:53;0.00;0.00;0.62;0.00;0.00;0.62;2.57;1.50;;;25.60;29.20;;;;;;2253463;61;20359;-63
2021/10/31 03:18:38;0.00;0.00;0.62;0.00;0.00;0.62;1.53;1.20;;;25.60;29.20;;;;;;2253398;61;20420;-64
2021/10/31 03:21:22;0.00;0.00;0.62;0.00;0.00;0.62;1.40;0.93;;;25.60;29.20;;;;;;2253388;61;20364;-64
2021/10/31 03:24:07;0.00;0.00;0.62;0.00;0.00;0.62;1.30;1.00;;;25.60;29.10;;;;;;2253739;61;20432;-62
2021/10/31 03:26:51;0.00;0.00;0.62;0.00;0.00;0.62;1.40;1.07;;;25.60;29.10;;;;;;2253710;61;20427;-64
2021/10/31 03:29:37;0.00;0.00;0.62;0.00;0.00;0.62;1.50;1.10;;;25.60;29.20;;;;;;2253331;61;20411;-66
2021/10/31 03:32:22;0.00;0.00;0.62;0.00;0.00;0.62;1.60;1.20;;;25.60;29.20;;;;;;2253198;61;20459;-64
2021/10/31 03:35:07;0.00;0.00;0.62;0.00;0.00;0.62;1.53;1.10;;;25.60;29.20;;;;;;2253633;61;20380;-62
2021/10/31 03:37:52;0.00;0.00;0.62;0.00;0.00;0.62;1.50;1.10;;;25.50;29.10;;;;;;2253408;61;20402;-65
2021/10/31 03:40:37;0.00;0.00;0.62;0.00;0.00;0.62;1.60;1.23;;;25.60;29.20;;;;;;2253479;61;20359;-62
2021/10/31 03:43:22;0.00;0.00;0.62;0.00;0.00;0.62;1.30;1.00;;;25.60;29.20;;;;;;2253259;61;20652;-65
2021/10/31 03:46:08;0.00;0.00;0.62;0.00;0.00;0.62;1.43;1.10;;;25.60;29.20;;;;;;2253385;61;20593;-65
2021/10/31 03:48:52;0.00;0.00;0.62;0.00;0.00;0.62;1.40;1.00;;;25.60;29.20;;;;;;2253592;61;20767;-64
2021/10/31 03:51:37;0.00;0.00;0.62;0.00;0.00;0.62;1.50;1.13;;;25.50;29.10;;;;;;2253327;61;20363;-64
2021/10/31 03:54:22;0.00;0.00;0.62;0.00;0.00;0.62;1.50;1.10;;;25.60;29.20;;;;;;2253127;61;20419;-63
2021/10/31 03:57:06;0.00;0.00;0.62;0.00;0.00;0.62;1.50;1.20;;;25.60;29.20;;;;;;2253639;61;20433;-65
2021/10/31 03:59:51;0.00;0.00;0.62;0.00;0.00;0.62;1.80;1.40;;;25.60;29.20;;;;;;2253481;61;20360;-64
2021/10/31 04:02:38;0.00;0.00;0.62;0.00;0.00;0.62;1.50;1.00;;;25.50;29.20;;;;;;2253363;61;20430;-62
2021/10/31 04:05:22;0.00;0.00;0.62;0.00;0.00;0.62;1.50;1.20;;;25.50;29.20;;;;;;2253153;61;20379;-65
2021/10/31 04:08:07;0.00;0.00;0.62;0.00;0.00;0.62;1.40;1.10;;;25.50;29.20;;;;;;2253602;61;20455;-63
2021/10/31 04:10:51;0.00;0.00;0.62;0.00;0.00;0.62;1.50;1.17;;;25.50;29.20;;;;;;2253540;61;20415;-64
2021/10/31 04:13:36;0.00;0.00;0.62;0.00;0.00;0.62;1.30;0.87;;;25.50;29.20;;;;;;2252494;61;20363;-63
2021/10/31 04:16:20;0.00;0.00;0.62;0.00;0.00;0.62;1.30;1.00;;;25.50;29.20;;;;;;2252912;61;20585;-63
2021/10/31 04:19:06;0.00;0.00;0.62;0.00;0.00;0.62;1.80;1.33;;;25.50;29.20;;;;;;2253708;61;20627;-62
2021/10/31 04:21:51;0.00;0.00;0.62;0.00;0.00;0.62;1.47;1.23;;;25.50;29.30;;;;;;2253271;61;20403;-62
2021/10/31 04:24:36;0.00;0.00;0.62;0.00;0.00;0.62;1.60;1.20;;;25.50;29.30;;;;;;2253289;61;20422;-63
2021/10/31 04:27:20;0.00;0.00;0.62;0.00;0.00;0.62;1.30;0.90;;;25.50;29.30;;;;;;2253276;61;20415;-63
2021/10/31 04:30:08;0.00;0.00;0.62;0.00;0.00;0.62;1.57;1.00;;;25.50;29.30;;;;;;2253606;61;20395;-63
2021/10/31 04:32:52;0.00;0.00;0.62;0.00;0.00;0.62;1.50;1.00;;;25.50;29.30;;;;;;2253468;61;20372;-65
2021/10/31 04:35:40;0.00;0.00;0.62;0.00;0.00;0.62;1.50;1.00;;;25.50;29.30;;;;;;2253021;61;20386;-63
2021/10/31 04:38:30;0.00;0.00;0.62;0.00;0.00;0.62;1.70;1.10;;;25.50;29.30;;;;;;2252993;61;20613;-62
2021/10/31 04:41:14;0.00;0.00;0.62;0.00;0.00;0.62;1.57;1.20;;;25.50;29.30;;;;;;2254333;61;20360;-62
2021/10/31 04:43:59;0.00;0.00;0.62;0.00;0.00;0.62;1.90;1.40;;;25.50;29.40;;;;;;2253881;61;20432;-63
2021/10/31 04:46:44;0.00;0.00;0.62;0.00;0.00;0.62;1.70;1.30;;;25.50;29.30;;;;;;2253816;61;20431;-62
2021/10/31 04:49:29;0.00;0.00;0.62;0.00;0.00;0.62;1.40;1.00;;;25.50;29.30;;;;;;2253987;61;20826;-63
2021/10/31 04:52:16;0.00;0.00;0.62;0.00;0.00;0.62;1.80;1.33;;;25.50;29.40;;;;;;2254339;61;20637;-65
2021/10/31 04:55:01;0.00;0.00;0.62;0.00;0.00;0.62;1.40;1.10;;;25.50;29.90;;;;;;2253801;61;20367;-65
2021/10/31 04:57:45;0.00;0.00;0.62;0.00;0.00;0.62;1.97;1.23;;;25.50;29.40;;;;;;2253681;61;20380;-61
2021/10/31 05:00:30;0.00;0.00;0.62;0.00;0.00;0.62;1.47;1.07;;;25.50;29.30;;;;;;2254112;61;20395;-67
2021/10/31 05:03:14;0.00;0.00;0.62;0.00;0.00;0.62;1.40;1.10;;;25.50;29.30;;;;;;2254192;61;20560;-63
2021/10/31 05:05:59;0.00;0.00;0.62;0.00;0.00;0.62;1.90;1.10;;;25.50;29.30;;;;;;2253837;61;20367;-62
2021/10/31 05:08:45;0.00;0.00;0.62;0.00;0.00;0.62;1.57;0.97;;;25.50;29.30;;;;;;2253815;61;20399;-63
2021/10/31 05:11:29;0.00;0.00;0.62;0.00;0.00;0.62;1.80;1.30;;;25.50;29.40;;;;;;2253781;61;20367;-61
2021/10/31 05:14:14;0.00;0.00;0.62;0.00;0.00;0.62;1.83;1.27;;;25.50;29.40;;;;;;2254148;61;20388;-62
2021/10/31 05:17:00;0.00;0.00;0.62;0.00;0.00;0.62;1.70;1.20;;;25.50;29.40;;;;;;2253642;61;20387;-62
2021/10/31 05:19:45;0.00;0.00;0.62;0.00;0.00;0.62;1.80;1.17;;;25.50;29.30;;;;;;2253508;61;20355;-64
2021/10/31 05:22:29;0.00;0.00;0.62;0.00;0.00;0.62;1.53;1.17;;;25.50;29.30;;;;;;2254188;61;20460;-64
2021/10/31 05:25:15;0.00;0.00;0.62;0.00;0.00;0.62;1.90;1.50;;;25.50;29.40;;;;;;2254161;61;20387;-64
2021/10/31 05:28:00;0.00;0.00;0.62;0.00;0.00;0.62;1.53;1.37;;;25.50;29.40;;;;;;2253726;61;20399;-62
2021/10/31 05:30:44;0.00;0.00;0.62;0.00;0.00;0.62;1.80;1.13;;;25.50;29.40;;;;;;2253673;61;20865;-62
2021/10/31 05:33:29;0.00;0.00;0.62;0.00;0.00;0.62;1.70;1.30;;;25.50;29.40;;;;;;2254037;61;20362;-63
2021/10/31 05:36:14;0.00;0.00;0.62;0.00;0.00;0.62;1.40;1.03;;;25.50;29.40;;;;;;2253499;61;20595;-61
2021/10/31 05:38:58;0.00;0.00;0.62;0.00;0.00;0.62;1.53;1.10;;;25.50;29.40;;;;;;2482855;53;20677;-63
2021/10/31 05:41:44;0.00;0.00;0.62;0.00;0.00;0.62;1.90;1.40;;;25.50;29.40;;;;;;2255029;61;20467;-63
2021/10/31 05:44:29;0.00;0.00;0.62;0.00;0.00;0.62;1.60;1.23;;;25.50;29.40;;;;;;2417013;45;20449;-64
2021/10/31 05:47:13;0.00;0.00;0.62;0.00;0.00;0.62;1.40;1.10;;;25.50;29.40;;;;;;2255973;61;20803;-64
2021/10/31 05:49:58;0.00;0.00;0.62;0.00;0.00;0.62;1.60;1.20;;;25.50;29.40;;;;;;2253200;61;20407;-63
2021/10/31 05:52:43;0.00;0.00;0.62;0.00;0.00;0.62;1.40;1.10;;;25.50;29.40;;;;;;2398292;53;20448;-64
2021/10/31 05:55:28;0.00;0.00;0.62;0.00;0.00;0.62;1.50;1.10;;;25.50;29.40;;;;;;2253796;61;20423;-65
2021/10/31 05:58:14;0.00;0.00;0.62;0.00;0.00;0.62;1.83;1.37;;;25.50;29.40;;;;;;2253867;61;20423;-62
2021/10/31 06:00:58;0.00;0.00;0.62;0.00;0.00;0.62;1.50;1.00;;;25.50;29.40;;;;;;2253671;61;20371;-62
2021/10/31 06:03:43;0.00;0.00;0.62;0.00;0.00;0.62;1.53;1.10;;;25.50;29.40;;;;;;2253755;61;20356;-64
2021/10/31 06:06:27;0.00;0.00;0.62;0.00;0.00;0.62;1.60;1.10;;;25.50;29.40;;;;;;2253888;61;20395;-63
2021/10/31 06:09:12;0.00;0.00;0.62;0.00;0.00;0.62;1.60;0.97;;;25.50;29.40;;;;;;2253714;61;20459;-65
2021/10/31 06:11:57;0.00;0.00;0.62;0.00;0.00;0.62;1.70;1.20;;;25.40;29.40;;;;;;2253575;61;20477;-61
2021/10/31 06:14:44;0.00;0.00;0.62;0.00;0.00;0.62;1.80;1.30;;;25.40;29.40;;;;;;2253569;61;20609;-64
2021/10/31 06:17:28;0.00;0.00;0.62;0.00;0.00;0.62;1.60;1.37;;;25.40;29.40;;;;;;2254085;61;20455;-62
2021/10/31 06:20:15;0.00;0.00;0.62;0.00;0.00;0.62;1.60;1.30;;;25.40;29.40;;;;;;2253414;61;20356;-62
2021/10/31 06:23:00;0.00;0.00;0.62;0.00;0.00;0.62;2.40;1.77;;;25.40;29.40;;;;;;2253678;61;20665;-66
2021/10/31 06:25:44;0.00;0.00;0.62;0.00;0.00;0.62;1.60;1.17;;;25.40;29.40;;;;;;2253681;61;20391;-65
2021/10/31 06:28:29;0.00;0.00;0.62;0.00;0.00;0.62;1.70;1.20;;;25.40;29.40;;;;;;2253836;61;20658;-63
2021/10/31 06:31:15;0.00;0.00;0.62;0.00;0.00;0.62;3.67;1.37;;;25.40;29.40;;;;;;2253601;61;20394;-63
2021/10/31 06:34:00;0.00;0.00;0.62;0.00;0.00;0.62;1.83;1.33;;;25.40;29.40;;;;;;2253541;61;20368;-66
2021/10/31 06:36:45;0.00;0.00;0.62;0.00;0.00;0.62;1.90;1.23;;;25.40;29.40;;;;;;2253443;61;20426;-64
2021/10/31 06:39:29;0.00;0.00;0.62;0.00;0.00;0.62;1.50;1.20;;;25.40;29.40;;;;;;2254133;61;20360;-64
2021/10/31 06:42:14;0.00;0.00;0.62;0.00;0.00;0.62;1.73;1.40;;;25.40;29.40;;;;;;2253402;61;20432;-66
2021/10/31 06:44:58;0.00;0.00;0.62;0.00;0.00;0.62;2.50;1.30;;;25.40;29.40;;;;;;2253276;61;20577;-64
2021/10/31 06:47:44;0.00;0.00;0.62;0.00;0.00;0.62;1.80;1.23;;;25.40;29.40;;;;;;2254183;61;20597;-61
2021/10/31 06:50:29;0.00;0.00;0.62;0.00;0.00;0.62;1.53;1.30;;;25.40;29.50;;;;;;2253721;61;20772;-63
2021/10/31 06:53:13;0.00;0.00;0.62;0.00;0.00;0.62;4.77;1.17;;;25.40;29.50;;;;;;2253692;61;20360;-61
2021/10/31 06:55:59;0.00;0.00;0.62;0.00;0.00;0.62;3.00;1.43;;;25.40;29.50;;;;;;2253804;61;20464;-69
2021/10/31 06:58:44;0.00;0.00;0.62;0.00;0.00;0.62;2.10;1.33;;;25.40;29.50;;;;;;2253530;61;20390;-67
2021/10/31 07:01:29;0.00;0.00;0.62;0.00;0.00;0.62;1.77;1.20;;;25.40;29.50;;;;;;2253835;61;20769;-65
2021/10/31 07:04:15;0.00;0.00;0.62;0.00;0.00;0.62;1.70;1.37;;;25.40;29.60;;;;;;2253579;61;20377;-63
2021/10/31 07:07:00;0.00;0.00;0.62;0.00;0.00;0.62;1.53;1.27;;;25.40;29.60;;;;;;2253475;61;20391;-64
2021/10/31 07:09:45;0.00;0.00;0.62;0.00;0.00;0.62;1.60;1.30;;;25.40;29.60;;;;;;2254068;61;20764;-62
2021/10/31 07:12:30;0.00;0.00;0.62;0.00;0.00;0.62;1.73;1.40;;;25.40;29.60;;;;;;2253695;61;20367;-63
2021/10/31 07:15:14;0.00;0.00;0.62;0.00;0.00;0.62;1.90;1.40;;;25.40;29.60;;;;;;2253272;61;20407;-62
2021/10/31 07:17:59;0.00;0.00;0.62;0.00;0.00;0.62;2.20;1.40;;;25.40;30.00;;;;;;2253673;61;20379;-62
2021/10/31 07:20:45;0.00;0.00;0.62;0.00;0.00;0.62;1.60;1.30;;;25.40;29.60;;;;;;2253793;61;20355;-65
2021/10/31 07:23:30;0.00;0.00;0.62;0.00;0.00;0.62;1.83;1.30;;;25.40;29.60;;;;;;2253694;61;20383;-66
2021/10/31 07:26:14;0.00;0.00;0.62;0.00;0.00;0.62;2.23;1.40;;;25.50;29.70;;;;;;2253614;61;20383;-62
2021/10/31 07:28:59;0.00;0.00;0.62;0.00;0.00;0.62;1.93;1.40;;;25.50;29.70;;;;;;2253425;61;20388;-64
2021/10/31 07:31:48;0.00;0.00;0.62;0.00;0.00;0.62;3.90;1.67;;;25.50;29.70;;;;;;2253866;61;20359;-64
2021/10/31 07:34:32;0.00;0.00;0.62;0.00;0.00;0.62;1.60;1.13;;;25.50;29.70;;;;;;2253809;61;20434;-62
2021/10/31 07:37:18;0.00;0.00;0.62;0.00;0.00;0.62;2.07;1.30;;;25.50;29.60;;;;;;2253475;61;20778;-63
2021/10/31 07:40:06;0.00;0.00;0.62;0.00;0.00;0.62;5.10;1.20;;;25.50;29.60;;;;;;2253671;61;20372;-62
2021/10/31 07:42:51;0.00;0.00;0.62;0.00;0.00;0.62;2.03;1.40;;;25.50;29.60;;;;;;2253762;61;20363;-62
2021/10/31 07:45:35;0.00;0.00;0.62;0.00;0.00;0.62;1.73;1.13;;;25.50;29.60;;;;;;2253395;61;20649;-63
2021/10/31 07:48:20;0.00;0.00;0.62;0.00;0.00;0.62;1.90;1.30;;;25.50;29.60;;;;;;2253684;61;20604;-63
2021/10/31 07:51:04;0.00;0.00;0.62;0.00;0.00;0.62;4.80;1.50;;;25.50;29.60;;;;;;2253427;61;20622;-61
2021/10/31 07:53:50;0.00;0.00;0.62;0.00;0.00;0.62;3.23;1.60;;;25.50;29.70;;;;;;2253875;61;20359;-61
2021/10/31 07:56:36;0.00;0.00;0.62;0.00;0.00;0.62;2.37;1.60;;;25.50;29.70;;;;;;2253500;61;20378;-61
2021/10/31 07:59:21;0.00;0.00;0.62;0.00;0.00;0.62;2.00;1.60;;;25.50;29.60;;;;;;2253475;61;20641;-61
2021/10/31 08:02:06;0.00;0.00;0.62;0.00;0.00;0.62;2.93;1.83;;;25.50;29.60;;;;;;2253737;61;20419;-62
2021/10/31 08:04:51;0.00;0.00;0.62;0.00;0.00;0.62;11.17;2.30;;;25.50;29.60;;;;;;2253647;61;20380;-62
2021/10/31 08:07:35;0.00;0.00;0.62;0.00;0.00;0.62;3.90;1.60;;;25.50;29.60;;;;;;2253484;61;20759;-63
2021/10/31 08:10:21;0.00;0.00;0.62;0.00;0.00;0.62;9.13;2.20;;;25.50;29.60;;;;;;2253588;61;20450;-64
2021/10/31 08:13:06;0.00;0.00;0.62;0.00;0.00;0.62;6.63;1.87;;;25.50;29.60;;;;;;2253360;61;20589;-64
2021/10/31 08:15:51;0.00;0.00;0.62;0.00;0.00;0.62;4.30;2.00;;;25.50;29.60;;;;;;2253831;61;20386;-63
2021/10/31 08:18:36;0.00;0.00;0.62;0.00;0.00;0.62;3.57;1.90;;;25.60;29.60;;;;;;2253527;61;20440;-63
2021/10/31 08:21:21;0.00;0.00;0.62;0.00;0.00;0.62;4.60;1.80;;;25.60;29.60;;;;;;2253304;61;20484;-63
2021/10/31 08:24:08;0.00;0.00;0.62;0.00;0.00;0.62;4.97;1.77;;;25.50;29.50;;;;;;2253765;61;20363;-63
2021/10/31 08:26:54;0.00;0.00;0.62;0.00;0.00;0.62;2.30;1.63;;;25.60;29.60;;;;;;2253643;61;20619;-63
2021/10/31 08:29:40;0.00;0.00;0.62;0.00;0.00;0.62;2.47;1.73;;;25.60;29.60;;;;;;2253399;61;20391;-65
2021/10/31 08:32:26;0.00;0.00;0.62;0.00;0.00;0.62;2.53;1.70;;;25.60;29.60;;;;;;2253547;61;20589;-65
2021/10/31 08:35:11;0.00;0.00;0.62;0.00;0.00;0.62;3.63;2.00;;;25.60;29.70;;;;;;2253177;61;20363;-64
2021/10/31 08:37:55;0.00;0.00;0.62;0.00;0.00;0.62;2.23;1.83;;;25.60;29.70;;;;;;2253545;61;20415;-66
2021/10/31 08:40:42;0.00;0.00;0.62;0.00;0.00;0.62;2.40;1.57;;;25.70;29.80;;;;;;2253581;61;20364;-62
2021/10/31 08:43:28;0.00;0.00;0.62;0.00;0.00;0.62;4.43;1.67;;;25.70;29.70;;;;;;2253187;61;20739;-64
2021/10/31 08:46:15;0.00;0.00;0.62;0.00;0.00;0.62;4.23;2.03;;;25.70;29.70;;;;;;2253350;61;20443;-66
2021/10/31 08:49:00;0.00;0.00;0.62;0.00;0.00;0.62;4.83;2.00;;;25.70;29.70;;;;;;2253341;61;20422;-61
2021/10/31 08:51:45;0.00;0.00;0.62;0.00;0.00;0.62;2.50;2.00;;;25.70;29.70;;;;;;2253356;61;20367;-65
2021/10/31 08:54:30;0.00;0.00;0.62;0.00;0.00;0.62;2.70;2.13;;;25.70;29.70;;;;;;2253128;61;20695;-66
2021/10/31 08:57:14;0.00;0.00;0.62;0.00;0.00;0.62;2.53;1.60;;;25.70;29.70;;;;;;2253564;61;20448;-62
2021/10/31 09:00:00;0.00;0.00;0.62;0.00;0.00;0.62;2.13;1.70;;;25.70;29.70;;;;;;2253684;61;20355;-63
2021/10/31 09:02:45;0.00;0.00;0.62;0.00;0.00;0.62;3.27;1.53;;;25.70;29.70;;;;;;2253349;61;20585;-63
2021/10/31 09:05:30;0.00;0.00;0.62;0.00;0.00;0.62;2.10;1.60;;;25.70;29.60;;;;;;2253170;61;20380;-62
2021/10/31 09:08:16;0.00;0.00;0.62;0.00;0.00;0.62;2.77;2.17;;;25.80;29.60;;;;;;2253653;61;20448;-64
2021/10/31 09:11:00;0.00;0.00;0.62;0.00;0.00;0.62;2.37;1.67;;;25.80;29.60;;;;;;2253306;61;20383;-66
2021/10/31 09:13:45;0.00;0.00;0.62;0.00;0.00;0.62;2.00;1.40;;;25.80;29.60;;;;;;2253432;61;20354;-63
2021/10/31 09:16:32;0.00;0.00;0.62;0.00;0.00;0.62;1.90;1.53;;;25.80;29.60;;;;;;2253449;61;20380;-64
2021/10/31 09:19:18;0.00;0.00;0.62;0.00;0.00;0.62;2.80;1.80;;;25.80;29.60;;;;;;2253481;61;20380;-64
2021/10/31 09:22:03;0.00;0.00;0.62;0.00;0.00;0.62;2.10;1.80;;;25.80;29.50;;;;;;2253515;61;20356;-65
2021/10/31 09:24:48;0.00;0.00;0.62;0.00;0.00;0.62;2.20;1.50;;;25.80;29.50;;;;;;2254151;61;20501;-65
2021/10/31 09:27:33;0.00;0.00;0.62;0.00;0.00;0.62;2.63;1.63;;;25.80;29.50;;;;;;2253862;61;20387;-65
2021/10/31 09:30:18;0.00;0.00;0.62;0.00;0.00;0.62;2.20;1.60;;;25.80;29.50;;;;;;2254256;61;20430;-65
2021/10/31 09:33:04;0.00;0.00;0.62;0.00;0.00;0.62;2.37;1.63;;;25.90;29.50;;;;;;2254259;61;20580;-62
2021/10/31 09:35:56;0.00;0.00;0.62;0.00;0.00;0.62;1.87;1.67;;;25.80;29.40;;;;;;2253815;61;20403;-66
2021/10/31 09:38:40;0.00;0.00;0.62;0.00;0.00;0.62;2.80;1.83;;;25.90;29.50;;;;;;2254056;61;20415;-66
2021/10/31 09:41:30;0.00;0.00;0.62;0.00;0.00;0.62;3.13;1.33;;;25.90;29.50;;;;;;2254100;61;20347;-63
2021/10/31 09:44:24;0.00;0.00;0.62;0.00;0.00;0.62;2.07;1.50;;;25.90;29.50;;;;;;2254227;61;20541;-63
2021/10/31 09:47:10;0.00;0.00;0.62;0.00;0.00;0.62;2.30;1.53;;;25.90;29.40;;;;;;2253819;61;20387;-66
2021/10/31 09:49:56;0.00;0.00;0.62;0.00;0.00;0.62;1.90;1.47;;;25.90;29.40;;;;;;2253775;61;20387;-64
2021/10/31 09:52:40;0.00;0.00;0.62;0.00;0.00;0.62;1.60;1.10;;;25.90;29.50;;;;;;2254245;61;20388;-67
2021/10/31 09:55:25;0.00;0.00;0.62;0.00;0.00;0.62;2.07;1.50;;;25.90;29.40;;;;;;2253913;61;20364;-63
2021/10/31 09:58:19;0.00;0.00;0.62;0.00;0.00;0.62;2.07;1.60;;;25.90;29.40;;;;;;2253676;61;20622;-64
2021/10/31 10:01:13;0.00;0.00;0.62;0.00;0.00;0.62;2.03;1.40;;;25.90;29.40;;;;;;2254024;61;20348;-65
2021/10/31 10:03:58;0.00;0.00;0.62;0.00;0.00;0.62;1.70;1.30;;;25.90;29.40;;;;;;2253767;61;20740;-62
2021/10/31 10:06:53;0.00;0.00;0.62;0.00;0.00;0.62;2.40;1.57;;;25.90;29.40;;;;;;2254177;61;20787;-63
2021/10/31 10:09:50;0.00;0.00;0.62;0.00;0.00;0.62;1.60;1.37;;;25.90;29.40;;;;;;2254027;61;20372;-64
2021/10/31 10:12:35;0.00;0.00;0.62;0.00;0.00;0.62;1.80;1.50;;;26.00;29.50;;;;;;2253710;61;20754;-66
2021/10/31 10:15:25;0.00;0.00;0.62;0.00;0.00;0.62;2.00;1.30;;;26.00;29.50;;;;;;2254114;61;20748;-65
2021/10/31 10:18:26;0.00;0.00;0.62;0.00;0.00;0.62;1.50;1.17;;;26.00;29.50;;;;;;2253950;61;20379;-62
2021/10/31 10:21:17;0.00;0.00;0.62;0.00;0.00;0.62;2.00;1.67;;;26.00;29.50;;;;;;2254033;61;20360;-66
2021/10/31 10:24:09;0.00;0.00;0.62;0.00;0.00;0.62;1.70;1.40;;;26.00;29.40;;;;;;2253544;61;20577;-64
2021/10/31 10:26:58;0.00;0.00;0.62;0.00;0.00;0.62;2.10;1.20;;;26.00;29.40;;;;;;2253445;61;20769;-63
2021/10/31 10:29:43;0.00;0.00;0.62;0.00;0.00;0.62;1.80;1.47;;;26.00;29.40;;;;;;2254014;61;20619;-63
2021/10/31 10:32:28;0.00;0.00;0.62;0.00;0.00;0.62;2.33;1.57;;;26.00;29.40;;;;;;2253642;61;20931;-66
2021/10/31 10:35:17;0.00;0.00;0.62;0.00;0.00;0.62;1.80;1.50;;;26.10;29.50;;;;;;2253540;61;20399;-64
2021/10/31 10:38:16;0.00;0.00;0.62;0.00;0.00;0.62;1.70;1.17;;;26.10;29.50;;;;;;2253904;61;20372;-63
2021/10/31 10:41:01;0.00;0.00;0.62;0.00;0.00;0.62;1.60;1.20;;;26.10;29.50;;;;;;2253508;61;20407;-66
2021/10/31 10:43:46;0.00;0.00;0.62;0.00;0.00;0.62;1.90;1.33;;;26.10;29.50;;;;;;2254191;61;20371;-65
2021/10/31 10:46:31;0.00;0.00;0.62;0.00;0.00;0.62;1.60;1.30;;;26.10;29.50;;;;;;2253776;61;20633;-65
2021/10/31 10:49:17;0.00;0.00;0.62;0.00;0.00;0.62;1.90;1.57;;;26.20;29.50;;;;;;2253713;61;20403;-63
2021/10/31 10:52:24;0.00;0.00;0.62;0.00;0.00;0.62;1.90;1.40;;;26.20;29.50;;;;;;2254164;61;20356;-67
2021/10/31 10:55:14;0.00;0.00;0.62;0.00;0.00;0.62;1.60;1.17;;;26.20;29.40;;;;;;2253640;61;20402;-65
2021/10/31 10:58:08;0.00;0.00;0.62;0.00;0.00;0.62;1.50;1.13;;;26.20;29.40;;;;;;2253662;61;20419;-67